Terminal Aerodrome Forecast
Issued by NWS Cleveland, OH

Home | Current Version | Previous Version | Graphics & Text | Print | Product List | Glossary Off
Versions: 1 2 3 4 5 6 7 8 9 10 11 12 13 14 15 16 17

290
FTUS41 KCLE 072331
TAFERI
TAF
KERI 072331Z 0800/0824 17008KT P6SM BKN120
     FM081400 16012KT P6SM SCT025 OVC045
     FM082100 27012KT 3SM -RASN OVC012=

USA.gov is the U.S. government's official web portal to all federal, state and local government web resources and services.